createdAt,value
2018-01-15T00:00:02.794Z,67.30
2018-01-15T00:01:02.819Z,63.10
2018-01-15T00:02:02.843Z,57.40
2018-01-15T00:03:02.866Z,62.50
2018-01-15T00:04:02.890Z,61.40
2018-01-15T00:05:02.912Z,61.90
2018-01-15T00:06:02.936Z,66.10
2018-01-15T00:07:02.960Z,64.80
2018-01-15T00:08:02.983Z,61.50
2018-01-15T00:09:03.005Z,58.80
2018-01-15T00:10:03.030Z,56.80
2018-01-15T00:11:03.054Z,55.60
2018-01-15T00:12:03.080Z,58.50
2018-01-15T00:13:03.101Z,60.60
2018-01-15T00:14:03.125Z,60.30
2018-01-15T00:15:03.146Z,58.60
2018-01-15T00:16:03.172Z,64.10
2018-01-15T00:17:03.194Z,60.90
2018-01-15T00:18:03.218Z,57.10
2018-01-15T00:19:03.241Z,65.90
2018-01-15T00:20:03.266Z,64.20
2018-01-15T00:21:03.287Z,63.30
2018-01-15T00:22:03.312Z,64.10
2018-01-15T00:23:03.336Z,67.60
2018-01-15T00:24:03.359Z,64.10
2018-01-15T00:25:03.382Z,59.60
2018-01-15T00:26:03.408Z,59.40
2018-01-15T00:27:03.430Z,52.80
2018-01-15T00:28:03.454Z,59.90
2018-01-15T00:29:03.478Z,56.20
2018-01-15T00:30:03.501Z,59.10
2018-01-15T00:31:03.678Z,60.30
2018-01-15T00:32:03.548Z,58.80
2018-01-15T00:33:03.573Z,53.50
2018-01-15T00:34:03.593Z,60.90
2018-01-15T00:35:03.617Z,55.90
2018-01-15T00:36:03.644Z,57.30
2018-01-15T00:37:03.666Z,57.20
2018-01-15T00:38:03.688Z,56.30
2018-01-15T00:39:03.716Z,57.80
2018-01-15T00:40:03.736Z,57.50
2018-01-15T00:41:03.760Z,60.80
2018-01-15T00:42:03.783Z,55.80
2018-01-15T00:43:03.805Z,56.60
2018-01-15T00:44:03.831Z,57.50
2018-01-15T00:45:03.852Z,55.00
2018-01-15T00:46:03.877Z,60.60
2018-01-15T00:47:03.901Z,61.70
2018-01-15T00:48:03.924Z,55.20
2018-01-15T00:49:03.949Z,59.60
2018-01-15T00:50:03.971Z,65.50
2018-01-15T00:51:03.995Z,78.00
2018-01-15T00:52:04.019Z,82.20
2018-01-15T00:53:04.040Z,71.50
2018-01-15T00:54:04.064Z,64.70
2018-01-15T00:55:04.088Z,70.10
2018-01-15T00:56:04.113Z,67.40
2018-01-15T00:57:04.134Z,67.90
2018-01-15T00:58:04.158Z,56.60
2018-01-15T00:59:04.183Z,65.40
2018-01-15T01:00:04.208Z,60.50
2018-01-15T01:01:04.230Z,56.30
2018-01-15T01:02:04.252Z,57.90
2018-01-15T01:03:04.277Z,58.20
2018-01-15T01:04:04.301Z,52.60
2018-01-15T01:05:04.324Z,61.00
2018-01-15T01:06:04.346Z,49.80
2018-01-15T01:07:04.371Z,58.20
2018-01-15T01:08:04.394Z,62.00
2018-01-15T01:09:04.418Z,53.80
2018-01-15T01:10:04.442Z,60.90
2018-01-15T01:11:04.466Z,52.30
2018-01-15T01:12:04.495Z,53.00
2018-01-15T01:13:04.513Z,60.10
2018-01-15T01:14:04.536Z,56.00
2018-01-15T01:15:04.561Z,53.50
2018-01-15T01:16:04.585Z,53.00
2018-01-15T01:17:04.607Z,55.50
2018-01-15T01:18:04.631Z,54.10
2018-01-15T01:19:04.655Z,57.20
2018-01-15T01:20:04.679Z,60.20
2018-01-15T01:21:04.701Z,56.70
2018-01-15T01:22:04.726Z,63.10
2018-01-15T01:23:04.749Z,57.60
2018-01-15T01:24:04.773Z,63.90
2018-01-15T01:25:04.796Z,54.30
2018-01-15T01:26:04.819Z,62.80
2018-01-15T01:27:04.843Z,58.80
2018-01-15T01:28:04.868Z,57.00
2018-01-15T01:29:04.889Z,57.50
2018-01-15T01:30:04.914Z,58.70
2018-01-15T01:31:04.937Z,55.00
2018-01-15T01:32:04.961Z,61.00
2018-01-15T01:33:04.985Z,60.40
2018-01-15T01:34:05.009Z,55.60
2018-01-15T01:35:05.040Z,57.30
2018-01-15T01:36:05.056Z,57.00
2018-01-15T01:37:05.078Z,57.60
2018-01-15T01:38:05.130Z,60.10
2018-01-15T01:39:05.127Z,57.40
2018-01-15T01:40:05.153Z,56.00
2018-01-15T01:41:05.174Z,57.50
2018-01-15T01:42:05.197Z,60.30
2018-01-15T01:43:05.222Z,52.10
2018-01-15T01:44:05.246Z,53.60
2018-01-15T01:45:05.269Z,53.90
2018-01-15T01:46:05.292Z,51.00
2018-01-15T01:47:05.316Z,53.40
2018-01-15T01:48:05.340Z,50.90
2018-01-15T01:49:05.364Z,54.50
2018-01-15T01:50:05.387Z,51.40
2018-01-15T01:51:05.450Z,52.30
2018-01-15T01:52:05.436Z,52.30
2018-01-15T01:53:05.458Z,54.40
2018-01-15T01:54:05.485Z,53.80
2018-01-15T01:55:05.508Z,49.40
2018-01-15T01:56:05.532Z,51.70
2018-01-15T01:57:05.554Z,51.90
2018-01-15T01:58:05.578Z,54.50
2018-01-15T01:59:05.603Z,51.40
2018-01-15T02:00:05.628Z,50.40
2018-01-15T02:01:05.649Z,49.40
2018-01-15T02:02:05.673Z,53.50
2018-01-15T02:03:05.697Z,49.30
2018-01-15T02:04:05.721Z,48.50
2018-01-15T02:05:05.746Z,51.60
2018-01-15T02:06:05.770Z,49.60
2018-01-15T02:07:05.793Z,48.60
2018-01-15T02:08:05.871Z,49.40
2018-01-15T02:09:05.840Z,51.70
2018-01-15T02:10:05.865Z,52.60
2018-01-15T02:11:05.890Z,52.10
2018-01-15T02:12:05.913Z,44.10
2018-01-15T02:13:05.937Z,47.70
2018-01-15T02:14:05.961Z,45.40
2018-01-15T02:15:05.985Z,48.60
2018-01-15T02:16:06.009Z,54.50
2018-01-15T02:17:06.033Z,51.60
2018-01-15T02:18:06.057Z,49.30
2018-01-15T02:19:06.081Z,45.80
2018-01-15T02:20:06.106Z,45.60
2018-01-15T02:21:06.129Z,52.00
2018-01-15T02:22:06.153Z,43.20
2018-01-15T02:23:06.177Z,49.10
2018-01-15T02:24:06.208Z,50.40
2018-01-15T02:25:06.225Z,47.40
2018-01-15T02:26:06.250Z,51.30
2018-01-15T02:27:06.274Z,48.40
2018-01-15T02:28:06.448Z,46.00
2018-01-15T02:29:06.321Z,46.30
2018-01-15T02:30:06.346Z,46.90
2018-01-15T02:31:06.371Z,48.50
2018-01-15T02:32:06.395Z,49.20
2018-01-15T02:33:06.418Z,47.50
2018-01-15T02:34:06.443Z,43.30
2018-01-15T02:35:06.467Z,42.90
2018-01-15T02:36:06.491Z,44.20
2018-01-15T02:37:06.522Z,54.30
2018-01-15T02:38:06.550Z,48.30
2018-01-15T02:39:06.565Z,44.20
2018-01-15T02:40:06.587Z,45.00
2018-01-15T02:41:06.609Z,46.40
2018-01-15T02:42:06.635Z,43.20
2018-01-15T02:43:06.659Z,44.70
2018-01-15T02:44:06.684Z,50.70
2018-01-15T02:45:06.708Z,45.10
2018-01-15T02:46:06.732Z,45.00
2018-01-15T02:47:06.757Z,43.20
2018-01-15T02:48:06.781Z,43.60
2018-01-15T02:49:06.810Z,45.50
2018-01-15T02:50:06.828Z,39.40
2018-01-15T02:51:06.854Z,46.00
2018-01-15T02:52:06.878Z,46.50
2018-01-15T02:53:06.901Z,46.30
2018-01-15T02:54:06.925Z,45.70
2018-01-15T02:55:06.949Z,45.10
2018-01-15T02:56:06.976Z,44.40
2018-01-15T02:57:06.998Z,50.10
2018-01-15T02:58:07.021Z,42.60
2018-01-15T02:59:07.046Z,48.20
2018-01-15T03:00:07.071Z,47.10
2018-01-15T03:01:07.097Z,45.50
2018-01-15T03:02:07.119Z,48.30
2018-01-15T03:03:07.143Z,49.60
2018-01-15T03:04:07.172Z,48.10
2018-01-15T03:05:07.192Z,47.50
2018-01-15T03:06:07.216Z,46.10
2018-01-15T03:07:07.240Z,46.80
2018-01-15T03:08:07.265Z,47.70
2018-01-15T03:09:07.288Z,51.20
2018-01-15T03:10:07.312Z,45.70
2018-01-15T03:11:07.338Z,49.80
2018-01-15T03:12:07.361Z,48.20
2018-01-15T03:13:07.385Z,47.10
2018-01-15T03:14:07.409Z,46.70
2018-01-15T03:15:07.433Z,48.40
2018-01-15T03:16:07.458Z,48.30
2018-01-15T03:17:07.487Z,49.80
2018-01-15T03:18:07.506Z,43.70
2018-01-15T03:19:07.530Z,46.90
2018-01-15T03:20:07.553Z,49.00
2018-01-15T03:21:07.578Z,46.20
2018-01-15T03:22:07.603Z,48.90
2018-01-15T03:23:07.626Z,46.10
2018-01-15T03:24:07.651Z,45.60
2018-01-15T03:25:07.676Z,48.50
2018-01-15T03:26:07.699Z,45.40
2018-01-15T03:27:07.724Z,53.20
2018-01-15T03:28:07.747Z,44.60
2018-01-15T03:29:07.771Z,50.50
2018-01-15T03:30:07.796Z,46.50
2018-01-15T03:31:07.821Z,57.50
2018-01-15T03:32:07.846Z,44.90
2018-01-15T03:33:07.870Z,48.50
2018-01-15T03:34:07.891Z,45.10
2018-01-15T03:35:07.917Z,47.30
2018-01-15T03:36:07.940Z,44.30
2018-01-15T03:37:07.964Z,47.90
2018-01-15T03:38:07.987Z,49.40
2018-01-15T03:39:08.012Z,46.70
2018-01-15T03:40:08.038Z,45.30
2018-01-15T03:41:08.060Z,44.50
2018-01-15T03:42:08.084Z,45.30
2018-01-15T03:43:08.109Z,49.60
2018-01-15T03:44:08.133Z,46.80
2018-01-15T03:45:08.156Z,47.70
2018-01-15T03:46:08.180Z,41.10
2018-01-15T03:47:08.205Z,44.60
2018-01-15T03:48:08.229Z,47.60
2018-01-15T03:49:08.252Z,51.00
2018-01-15T03:50:08.277Z,45.30
2018-01-15T03:51:08.299Z,52.90
2018-01-15T03:52:08.325Z,44.50
2018-01-15T03:53:08.347Z,47.80
2018-01-15T03:54:08.376Z,47.00
2018-01-15T03:55:08.394Z,48.80
2018-01-15T03:56:08.420Z,48.90
2018-01-15T03:57:08.443Z,47.60
2018-01-15T03:58:08.466Z,52.80
2018-01-15T03:59:08.491Z,48.80
2018-01-15T04:00:08.516Z,43.00
2018-01-15T04:01:08.539Z,46.70
2018-01-15T04:02:08.563Z,46.40
2018-01-15T04:03:08.587Z,41.70
2018-01-15T04:04:08.611Z,47.10
2018-01-15T04:05:08.634Z,47.80
2018-01-15T04:06:08.656Z,44.70
2018-01-15T04:07:08.680Z,43.20
2018-01-15T04:08:08.706Z,48.90
2018-01-15T04:09:08.728Z,49.20
2018-01-15T04:10:08.751Z,48.20
2018-01-15T04:11:08.776Z,43.90
2018-01-15T04:12:08.805Z,50.40
2018-01-15T04:13:08.823Z,49.80
2018-01-15T04:14:08.847Z,44.40
2018-01-15T04:15:08.872Z,52.10
2018-01-15T04:16:08.895Z,46.90
2018-01-15T04:17:08.917Z,49.10
2018-01-15T04:18:08.941Z,45.40
2018-01-15T04:19:08.966Z,41.20
2018-01-15T04:20:08.990Z,48.60
2018-01-15T04:21:09.013Z,45.50
2018-01-15T04:22:09.038Z,44.50
2018-01-15T04:23:09.061Z,47.90
2018-01-15T04:24:09.085Z,47.90
2018-01-15T04:25:09.258Z,45.90
2018-01-15T04:26:09.133Z,51.30
2018-01-15T04:27:09.155Z,47.00
2018-01-15T04:28:09.180Z,47.90
2018-01-15T04:29:09.202Z,49.50
2018-01-15T04:30:09.228Z,50.40
2018-01-15T04:31:09.250Z,44.60
2018-01-15T04:32:09.276Z,43.00
2018-01-15T04:33:09.298Z,48.50
2018-01-15T04:34:09.322Z,53.20
2018-01-15T04:35:09.349Z,53.60
2018-01-15T04:36:09.370Z,51.00
2018-01-15T04:37:09.393Z,49.20
2018-01-15T04:38:09.417Z,53.10
2018-01-15T04:39:09.440Z,48.60
2018-01-15T04:40:09.465Z,43.80
2018-01-15T04:41:09.487Z,48.50
2018-01-15T04:42:09.516Z,45.70
2018-01-15T04:43:09.580Z,52.00
2018-01-15T04:44:09.558Z,51.60
2018-01-15T04:45:09.581Z,48.90
2018-01-15T04:46:09.604Z,51.40
2018-01-15T04:47:09.628Z,48.20
2018-01-15T04:48:09.653Z,48.70
2018-01-15T04:49:09.676Z,46.00
2018-01-15T04:50:09.699Z,44.10
2018-01-15T04:51:09.722Z,41.60
2018-01-15T04:52:09.746Z,50.20
2018-01-15T04:53:09.770Z,49.10
2018-01-15T04:54:09.794Z,43.50
2018-01-15T04:55:09.816Z,47.90
2018-01-15T04:56:09.841Z,50.20
2018-01-15T04:57:09.863Z,44.60
2018-01-15T04:58:09.886Z,44.90
2018-01-15T04:59:09.909Z,49.60
2018-01-15T05:00:09.932Z,46.30
2018-01-15T05:01:09.956Z,49.30
2018-01-15T05:02:09.980Z,44.90
2018-01-15T05:03:10.003Z,48.50
2018-01-15T05:04:10.085Z,43.70
2018-01-15T05:05:10.053Z,53.50
2018-01-15T05:06:10.073Z,46.10
2018-01-15T05:07:10.097Z,47.10
2018-01-15T05:08:10.122Z,48.80
2018-01-15T05:09:10.141Z,49.80
2018-01-15T05:10:10.188Z,45.60
2018-01-15T05:11:10.189Z,43.00
2018-01-15T05:12:10.213Z,45.10
2018-01-15T05:13:10.236Z,42.50
2018-01-15T05:14:10.259Z,44.10
2018-01-15T05:15:10.283Z,47.50
2018-01-15T05:16:10.306Z,44.70
2018-01-15T05:17:10.330Z,44.30
2018-01-15T05:18:10.352Z,42.00
2018-01-15T05:19:10.376Z,43.80
2018-01-15T05:20:10.400Z,45.60
2018-01-15T05:21:10.497Z,43.50
2018-01-15T05:22:10.446Z,43.40
2018-01-15T05:23:10.469Z,45.80
2018-01-15T05:24:10.492Z,46.80
2018-01-15T05:25:10.514Z,44.40
2018-01-15T05:26:10.539Z,45.70
2018-01-15T05:27:10.562Z,45.80
2018-01-15T05:28:10.585Z,40.90
2018-01-15T05:29:10.608Z,41.70
2018-01-15T05:30:10.631Z,45.40
2018-01-15T05:31:10.805Z,38.80
2018-01-15T05:32:10.679Z,43.00
2018-01-15T05:33:10.701Z,43.00
2018-01-15T05:34:10.725Z,41.80
2018-01-15T05:35:10.748Z,46.20
2018-01-15T05:36:10.771Z,45.50
2018-01-15T05:37:10.794Z,43.60
2018-01-15T05:38:10.817Z,40.30
2018-01-15T05:39:10.840Z,45.60
2018-01-15T05:40:10.864Z,45.20
2018-01-15T05:41:10.888Z,42.40
2018-01-15T05:42:10.910Z,46.50
2018-01-15T05:43:10.934Z,48.70
2018-01-15T05:44:10.957Z,44.20
2018-01-15T05:45:10.983Z,43.00
2018-01-15T05:46:11.003Z,44.10
2018-01-15T05:47:11.025Z,43.10
2018-01-15T05:48:11.050Z,44.50
2018-01-15T05:49:11.072Z,44.70
2018-01-15T05:50:11.097Z,39.80
2018-01-15T05:51:11.120Z,43.30
2018-01-15T05:52:11.144Z,45.20
2018-01-15T05:53:11.165Z,48.70
2018-01-15T05:54:11.189Z,44.90
2018-01-15T05:55:11.212Z,42.90
2018-01-15T05:56:11.236Z,53.50
2018-01-15T05:57:11.258Z,43.50
2018-01-15T05:58:11.280Z,41.30
2018-01-15T05:59:11.305Z,40.70
2018-01-15T06:00:11.329Z,40.20
2018-01-15T06:01:11.353Z,42.10
2018-01-15T06:02:11.375Z,43.10
2018-01-15T06:03:11.397Z,42.00
2018-01-15T06:04:11.422Z,38.50
2018-01-15T06:05:11.444Z,43.30
2018-01-15T06:06:11.468Z,41.90
2018-01-15T06:07:11.498Z,38.40
2018-01-15T06:08:11.515Z,43.60
2018-01-15T06:09:11.538Z,39.10
2018-01-15T06:10:11.561Z,40.80
2018-01-15T06:11:11.585Z,42.20
2018-01-15T06:12:11.607Z,39.50
2018-01-15T06:13:11.631Z,41.00
2018-01-15T06:14:11.654Z,41.00
2018-01-15T06:15:11.676Z,36.50
2018-01-15T06:16:11.700Z,40.40
2018-01-15T06:17:11.723Z,40.80
2018-01-15T06:18:11.747Z,37.30
2018-01-15T06:19:11.774Z,42.30
2018-01-15T06:20:11.798Z,37.10
2018-01-15T06:21:11.817Z,34.90
2018-01-15T06:22:11.840Z,42.90
2018-01-15T06:23:11.865Z,42.30
2018-01-15T06:24:11.889Z,41.60
2018-01-15T06:25:11.909Z,35.60
2018-01-15T06:26:11.938Z,36.30
2018-01-15T06:27:11.958Z,41.40
2018-01-15T06:28:11.982Z,42.60
2018-01-15T06:29:12.003Z,40.40
2018-01-15T06:30:12.028Z,34.80
2018-01-15T06:31:12.051Z,38.60
2018-01-15T06:32:12.075Z,40.10
2018-01-15T06:33:12.098Z,41.70
2018-01-15T06:34:12.122Z,40.50
2018-01-15T06:35:12.144Z,40.00
2018-01-15T06:36:12.169Z,44.70
2018-01-15T06:37:12.192Z,39.80
2018-01-15T06:38:12.215Z,38.10
2018-01-15T06:39:12.239Z,41.00
2018-01-15T06:40:12.262Z,38.60
2018-01-15T06:41:12.285Z,34.00
2018-01-15T06:42:12.309Z,37.30
2018-01-15T06:43:12.333Z,36.20
2018-01-15T06:44:12.356Z,35.80
2018-01-15T06:45:12.379Z,33.80
2018-01-15T06:46:12.402Z,38.30
2018-01-15T06:47:12.427Z,38.10
2018-01-15T06:48:12.449Z,32.30
2018-01-15T06:49:12.473Z,36.10
2018-01-15T06:50:12.496Z,37.20
2018-01-15T06:51:12.521Z,37.00
2018-01-15T06:52:12.545Z,34.70
2018-01-15T06:53:12.566Z,33.90
2018-01-15T06:54:12.589Z,34.10
2018-01-15T06:55:12.614Z,32.80
2018-01-15T06:56:12.638Z,27.90
2018-01-15T06:57:12.661Z,29.40
2018-01-15T06:58:12.685Z,29.20
2018-01-15T06:59:12.708Z,33.60
2018-01-15T07:00:12.732Z,30.20
2018-01-15T07:01:12.755Z,28.60
2018-01-15T07:02:12.780Z,29.70
2018-01-15T07:03:12.803Z,33.80
2018-01-15T07:04:12.827Z,28.90
2018-01-15T07:05:12.850Z,27.50
2018-01-15T07:06:12.874Z,30.40
2018-01-15T07:07:12.898Z,31.30
2018-01-15T07:08:12.921Z,29.20
2018-01-15T07:09:12.944Z,28.90
2018-01-15T07:10:12.968Z,33.20
2018-01-15T07:11:12.992Z,30.30
2018-01-15T07:12:13.017Z,33.00
2018-01-15T07:13:13.039Z,30.70
2018-01-15T07:14:13.064Z,33.50
2018-01-15T07:15:13.086Z,31.20
2018-01-15T07:16:13.113Z,29.00
2018-01-15T07:17:13.184Z,35.70
2018-01-15T07:18:13.158Z,34.50
2018-01-15T07:19:13.196Z,31.30
2018-01-15T07:20:13.206Z,32.00
2018-01-15T07:21:13.233Z,36.10
2018-01-15T07:22:13.255Z,32.90
2018-01-15T07:23:13.279Z,36.00
2018-01-15T07:24:13.302Z,32.60
2018-01-15T07:25:13.325Z,38.20
2018-01-15T07:26:13.352Z,37.50
2018-01-15T07:27:13.373Z,29.90
2018-01-15T07:28:13.399Z,37.90
2018-01-15T07:29:13.422Z,35.90
2018-01-15T07:30:13.445Z,37.20
2018-01-15T07:31:13.469Z,33.60
2018-01-15T07:32:13.496Z,37.30
2018-01-15T07:33:13.518Z,41.60
2018-01-15T07:34:13.542Z,31.10
2018-01-15T07:35:13.566Z,33.70
2018-01-15T07:36:13.591Z,34.50
2018-01-15T07:37:13.613Z,33.90
2018-01-15T07:38:13.638Z,34.80
2018-01-15T07:39:13.665Z,32.90
2018-01-15T07:40:13.687Z,38.50
2018-01-15T07:41:13.710Z,42.70
2018-01-15T07:42:13.734Z,36.20
2018-01-15T07:43:13.759Z,36.50
2018-01-15T07:44:13.783Z,39.10
2018-01-15T07:45:13.805Z,34.70
2018-01-15T07:46:13.830Z,38.10
2018-01-15T07:47:13.854Z,34.10
2018-01-15T07:48:13.879Z,32.10
2018-01-15T07:49:13.910Z,35.60
2018-01-15T07:50:13.927Z,34.80
2018-01-15T07:51:13.952Z,37.20
2018-01-15T07:52:13.977Z,32.50
2018-01-15T07:53:13.999Z,39.60
2018-01-15T07:54:14.024Z,33.20
2018-01-15T07:55:14.049Z,38.20
2018-01-15T07:56:14.077Z,37.90
2018-01-15T07:57:14.147Z,38.90
2018-01-15T07:58:14.125Z,39.50
2018-01-15T07:59:14.145Z,37.30
2018-01-15T08:00:14.172Z,42.20
2018-01-15T08:01:14.192Z,39.50
2018-01-15T08:02:14.216Z,37.50
2018-01-15T08:03:14.241Z,37.30
2018-01-15T08:04:14.327Z,39.30
2018-01-15T08:05:14.331Z,43.50
2018-01-15T08:06:14.344Z,36.30
2018-01-15T08:07:14.338Z,38.80
2018-01-15T08:08:14.363Z,40.40
2018-01-15T08:09:14.386Z,32.50
2018-01-15T08:10:14.411Z,38.50
2018-01-15T08:11:14.435Z,44.70
2018-01-15T08:12:14.492Z,39.90
2018-01-15T08:13:14.484Z,41.80
2018-01-15T08:14:14.521Z,38.10
2018-01-15T08:15:14.533Z,40.40
2018-01-15T08:16:14.558Z,44.30
2018-01-15T08:17:14.581Z,39.70
2018-01-15T08:18:14.606Z,42.80
2018-01-15T08:19:14.630Z,35.70
2018-01-15T08:20:14.655Z,36.60
2018-01-15T08:21:14.678Z,35.30
2018-01-15T08:22:14.702Z,36.80
2018-01-15T08:23:14.728Z,41.40
2018-01-15T08:24:14.752Z,41.40
2018-01-15T08:25:14.778Z,38.10
2018-01-15T08:26:14.801Z,37.90
2018-01-15T08:27:14.825Z,40.80
2018-01-15T08:28:14.850Z,39.90
2018-01-15T08:29:14.913Z,41.10
2018-01-15T08:30:14.899Z,44.30
2018-01-15T08:31:14.923Z,34.40
2018-01-15T08:32:14.949Z,46.30
2018-01-15T08:33:14.984Z,40.20
2018-01-15T08:34:14.996Z,37.90
2018-01-15T08:35:15.021Z,44.80
2018-01-15T08:36:15.050Z,51.60
2018-01-15T08:37:15.071Z,40.50
2018-01-15T08:38:15.095Z,39.90
2018-01-15T08:39:15.120Z,42.50
2018-01-15T08:40:15.251Z,43.10
2018-01-15T08:41:15.170Z,52.00
2018-01-15T08:42:15.193Z,47.00
2018-01-15T08:43:15.218Z,49.00
2018-01-15T08:44:15.244Z,51.40
2018-01-15T08:45:15.268Z,49.50
2018-01-15T08:46:15.292Z,44.80
2018-01-15T08:47:15.322Z,45.50
2018-01-15T08:48:15.342Z,44.40
2018-01-15T08:49:15.365Z,47.20
2018-01-15T08:50:15.390Z,40.80
2018-01-15T08:51:15.415Z,44.10
2018-01-15T08:52:15.440Z,41.70
2018-01-15T08:53:15.464Z,42.00
2018-01-15T08:54:15.488Z,43.00
2018-01-15T08:55:15.514Z,41.50
2018-01-15T08:56:15.538Z,44.00
2018-01-15T08:57:15.562Z,42.90
2018-01-15T08:58:15.589Z,41.10
2018-01-15T08:59:15.614Z,45.50
2018-01-15T09:00:15.638Z,42.60
2018-01-15T09:01:15.662Z,44.20
2018-01-15T09:02:15.687Z,44.10
2018-01-15T09:03:15.714Z,42.10
2018-01-15T09:04:15.737Z,43.60
2018-01-15T09:05:15.761Z,43.90
2018-01-15T09:06:15.793Z,37.60
2018-01-15T09:07:15.811Z,44.70
2018-01-15T09:08:15.837Z,39.30
2018-01-15T09:09:15.861Z,41.60
2018-01-15T09:10:16.037Z,35.00
2018-01-15T09:11:15.912Z,37.20
2018-01-15T09:12:15.936Z,37.20
2018-01-15T09:13:15.964Z,31.40
2018-01-15T09:14:15.986Z,37.60
2018-01-15T09:15:16.012Z,34.10
2018-01-15T09:16:16.059Z,34.60
2018-01-15T09:17:16.061Z,37.00
2018-01-15T09:18:16.086Z,35.90
2018-01-15T09:19:16.110Z,36.60
2018-01-15T09:20:16.138Z,35.40
2018-01-15T09:21:16.159Z,37.70
2018-01-15T09:22:16.185Z,44.10
2018-01-15T09:23:16.211Z,39.30
2018-01-15T09:24:16.238Z,34.30
2018-01-15T09:25:16.261Z,36.20
2018-01-15T09:26:16.286Z,39.90
2018-01-15T09:27:16.310Z,42.60
2018-01-15T09:28:16.337Z,40.40
2018-01-15T09:29:16.361Z,41.60
2018-01-15T09:30:16.389Z,41.30
2018-01-15T09:31:16.412Z,34.30
2018-01-15T09:32:16.438Z,33.60
2018-01-15T09:33:16.462Z,37.80
2018-01-15T09:34:16.487Z,35.90
2018-01-15T09:35:16.511Z,35.00
2018-01-15T09:36:16.538Z,34.50
2018-01-15T09:37:16.565Z,35.60
2018-01-15T09:38:16.589Z,34.90
2018-01-15T09:39:16.616Z,37.80
2018-01-15T09:40:16.640Z,30.40
2018-01-15T09:41:16.664Z,36.60
2018-01-15T09:42:16.692Z,37.00
2018-01-15T09:43:16.727Z,34.10
2018-01-15T09:44:16.742Z,40.40
2018-01-15T09:45:16.799Z,37.30
2018-01-15T09:46:16.796Z,30.90
2018-01-15T09:47:16.818Z,35.80
2018-01-15T09:48:16.843Z,32.40
2018-01-15T09:49:16.910Z,36.00
2018-01-15T09:50:16.894Z,37.00
2018-01-15T09:51:16.921Z,37.20
2018-01-15T09:52:16.946Z,35.90
2018-01-15T09:53:16.973Z,35.80
2018-01-15T09:54:16.998Z,33.80
2018-01-15T09:55:17.024Z,36.70
2018-01-15T09:56:17.050Z,34.80
2018-01-15T09:57:17.075Z,37.60
2018-01-15T09:58:17.100Z,40.70
2018-01-15T09:59:17.126Z,34.00
2018-01-15T10:00:17.152Z,39.20
2018-01-15T10:01:17.178Z,36.50
2018-01-15T10:02:17.204Z,35.40
2018-01-15T10:03:17.230Z,40.80
2018-01-15T10:04:17.255Z,35.90
2018-01-15T10:05:17.283Z,38.90
2018-01-15T10:06:17.309Z,33.60
2018-01-15T10:07:17.335Z,35.30
2018-01-15T10:08:17.361Z,36.00
2018-01-15T10:09:17.386Z,35.00
2018-01-15T10:10:17.413Z,45.10
2018-01-15T10:11:17.439Z,36.70
2018-01-15T10:12:17.466Z,39.20
2018-01-15T10:13:17.491Z,46.60
2018-01-15T10:14:17.518Z,38.40
2018-01-15T10:15:17.544Z,38.90
2018-01-15T10:16:17.599Z,40.00
2018-01-15T10:17:17.596Z,40.00
2018-01-15T10:18:17.623Z,37.00
2018-01-15T10:19:17.651Z,43.90
2018-01-15T10:20:17.678Z,40.30
2018-01-15T10:21:17.702Z,35.80
2018-01-15T10:22:17.731Z,38.30
2018-01-15T10:23:17.758Z,42.90
2018-01-15T10:24:17.783Z,45.20
2018-01-15T10:25:17.845Z,50.20
2018-01-15T10:26:17.839Z,48.50
2018-01-15T10:27:17.869Z,46.00
2018-01-15T10:28:17.893Z,51.30
2018-01-15T10:29:17.920Z,51.50
2018-01-15T10:30:17.947Z,52.40
2018-01-15T10:31:17.973Z,54.00
2018-01-15T10:32:18.001Z,60.10
2018-01-15T10:33:18.057Z,51.40
2018-01-15T10:34:18.054Z,55.50
2018-01-15T10:35:18.121Z,47.80
2018-01-15T10:36:18.109Z,54.40
2018-01-15T10:37:18.136Z,58.60
2018-01-15T10:38:18.162Z,51.80
2018-01-15T10:39:18.190Z,52.30
2018-01-15T10:40:18.217Z,57.10
2018-01-15T10:41:18.244Z,58.50
2018-01-15T10:42:18.272Z,53.50
2018-01-15T10:43:18.298Z,51.80
2018-01-15T10:44:18.326Z,45.70
2018-01-15T10:45:18.353Z,51.40
2018-01-15T10:46:18.381Z,47.00
2018-01-15T10:47:18.408Z,46.40
2018-01-15T10:48:18.434Z,46.60
2018-01-15T10:49:18.461Z,42.20
2018-01-15T10:50:18.490Z,39.60
2018-01-15T10:51:18.518Z,39.20
2018-01-15T10:52:18.544Z,32.90
2018-01-15T10:53:18.570Z,31.40
2018-01-15T10:54:18.599Z,28.60
2018-01-15T10:55:18.627Z,31.00
2018-01-15T10:56:18.654Z,30.80
2018-01-15T10:57:18.682Z,34.70
2018-01-15T10:58:18.709Z,39.00
2018-01-15T10:59:18.737Z,37.30
2018-01-15T11:00:18.764Z,41.80
2018-01-15T11:01:18.792Z,49.30
2018-01-15T11:02:18.820Z,37.10
2018-01-15T11:03:18.847Z,37.30
2018-01-15T11:04:18.875Z,28.60
2018-01-15T11:05:18.902Z,35.80
2018-01-15T11:06:18.931Z,27.10
2018-01-15T11:07:18.958Z,34.30
2018-01-15T11:08:18.985Z,30.10
2018-01-15T11:09:19.015Z,31.40
2018-01-15T11:10:19.042Z,27.40
2018-01-15T11:11:19.071Z,27.00
2018-01-15T11:12:19.099Z,25.90
2018-01-15T11:13:19.124Z,26.10
2018-01-15T11:14:19.150Z,28.90
2018-01-15T11:15:19.180Z,27.40
2018-01-15T11:16:19.207Z,34.10
2018-01-15T11:17:19.235Z,32.50
2018-01-15T11:18:19.264Z,29.00
2018-01-15T11:19:19.293Z,32.10
2018-01-15T11:20:19.319Z,24.10
2018-01-15T11:21:19.347Z,14.90
2018-01-15T11:22:19.375Z,16.80
2018-01-15T11:23:19.403Z,23.10
2018-01-15T11:24:19.431Z,27.10
2018-01-15T11:25:19.459Z,21.90
2018-01-15T11:26:19.490Z,22.00
2018-01-15T11:27:19.517Z,18.90
2018-01-15T11:28:19.544Z,18.00
2018-01-15T11:29:19.571Z,23.10
2018-01-15T11:30:19.600Z,18.40
2018-01-15T11:31:19.629Z,19.80
2018-01-15T11:32:19.657Z,19.90
2018-01-15T11:33:19.684Z,20.50
2018-01-15T11:34:19.713Z,16.60
2018-01-15T11:35:19.742Z,18.50
2018-01-15T11:36:19.770Z,16.60
2018-01-15T11:37:19.798Z,14.80
2018-01-15T11:38:19.827Z,13.10
2018-01-15T11:39:19.856Z,15.10
2018-01-15T11:40:19.885Z,14.30
2018-01-15T11:41:19.912Z,13.00
2018-01-15T11:42:19.941Z,13.80
2018-01-15T11:43:19.971Z,10.50
2018-01-15T11:44:19.999Z,14.30
2018-01-15T11:45:20.026Z,11.30
2018-01-15T11:46:20.056Z,15.70
2018-01-15T11:47:20.084Z,12.50
2018-01-15T11:48:20.113Z,14.80
2018-01-15T11:49:20.141Z,11.50
2018-01-15T11:50:20.170Z,12.20
2018-01-15T11:51:20.199Z,11.90
2018-01-15T11:52:20.229Z,21.50
2018-01-15T11:53:20.257Z,11.90
2018-01-15T11:54:20.285Z,20.10
2018-01-15T11:55:20.315Z,16.30
2018-01-15T11:56:20.344Z,18.70
2018-01-15T11:57:20.373Z,14.70
2018-01-15T11:58:20.400Z,12.10
2018-01-15T11:59:20.437Z,13.70
2018-01-15T12:00:20.462Z,18.90
2018-01-15T12:01:20.490Z,21.80
2018-01-15T12:02:20.521Z,13.60
2018-01-15T12:03:20.551Z,11.00
2018-01-15T12:04:20.581Z,10.20
2018-01-15T12:05:20.612Z,10.10
2018-01-15T12:06:20.643Z,8.10
2018-01-15T12:07:20.674Z,10.70
2018-01-15T12:08:20.707Z,8.50
2018-01-15T12:09:20.740Z,8.80
2018-01-15T12:10:20.773Z,7.60
2018-01-15T12:11:20.806Z,11.10
2018-01-15T12:12:20.840Z,8.00
2018-01-15T12:13:20.872Z,8.20
2018-01-15T12:14:20.907Z,17.10
2018-01-15T12:15:20.943Z,15.80
2018-01-15T12:16:20.976Z,15.90
2018-01-15T12:17:21.009Z,12.10
2018-01-15T12:18:21.043Z,12.50
2018-01-15T12:19:21.078Z,15.60
2018-01-15T12:20:21.171Z,9.30
2018-01-15T12:21:21.158Z,12.00
2018-01-15T12:22:21.181Z,8.80
2018-01-15T12:23:21.214Z,7.90
2018-01-15T12:24:21.249Z,8.80
2018-01-15T12:25:21.281Z,12.00
2018-01-15T12:26:21.317Z,8.50
2018-01-15T12:27:21.350Z,12.20
2018-01-15T12:28:21.385Z,22.30
2018-01-15T12:29:21.418Z,17.70
2018-01-15T12:30:21.453Z,12.90
2018-01-15T12:31:21.487Z,8.80
2018-01-15T12:32:21.520Z,6.40
2018-01-15T12:33:21.554Z,6.80
2018-01-15T12:34:21.588Z,6.90
2018-01-15T12:35:21.623Z,7.40
2018-01-15T12:36:21.657Z,8.30
2018-01-15T12:37:21.690Z,7.00
2018-01-15T12:38:21.724Z,7.20
2018-01-15T12:39:21.758Z,6.50
2018-01-15T12:40:21.793Z,6.60
2018-01-15T12:41:21.827Z,7.50
2018-01-15T12:42:21.860Z,7.30
2018-01-15T12:43:21.894Z,8.50
2018-01-15T12:44:21.928Z,8.20
2018-01-15T12:45:21.961Z,6.20
2018-01-15T12:46:21.996Z,8.70
2018-01-15T12:47:22.029Z,5.80
2018-01-15T12:48:22.065Z,5.30
2018-01-15T12:49:22.097Z,5.90
2018-01-15T12:50:22.130Z,8.60
2018-01-15T12:51:22.165Z,5.60
2018-01-15T12:52:22.198Z,6.80
2018-01-15T12:53:22.234Z,5.70